LSGS METAR and TAF | Updated Today

LSGS METAR

Sion Airport

Observation time: 30 min. ago

LSGS 292120Z AUTO VRB02KT CAVOK 10/07 Q1005

Need help? Read our tutorial on how to read METARs or read the parsed version below.

Sion Airport (LSGS) METAR

  • Weather conditions on Thu, 29 Sep 2022 21:20:00 +0000 (30 min. ago):
  • Present conditions: Dry
  • Clouds: Clear skies
  • Visibility: Greater than 10 km
  • Wind: Variable at 2 knots
  • Temperature: 10 celsius
  • Dew point: 7 celsius
  • Pressure: 1005 millibars
  • Remarks: None


Useful to know...

LSGS TAF

Sion Airport

TAF LSGS 291425Z 2915/2924 25005KT 9999 SCT030 BKN090
Observation time: 7:25 hr. ago
Need help? Read our tutorial on how to read TAFs or read the parsed version below.

Parsed version of TAF for Sion Airport (LSGS)

  • From 29 September at 15:00 UTC, to day 29 of the month at 24:00 UTC
  • Clouds: Scattered at 914 meters; broken sky at 2743 meters
  • Visibility: Greater than 10 km
  • Wind: 250 degrees at 5